Time;durP1;ratioP1;P1;durP2;ratioP2;P2;SDS_P1;SDS_P2;PMS_P1;PMS_P2;Temp;Humidity;BMP_temperature;BMP_pressure;BME280_temperature;BME280_humidity;BME280_pressure;Samples;Min_cycle;Max_cycle;Signal;HPM_P1;HPM_P2
2021/12/23 00:01:40;;;;;;;52.30;28.70;;;-5.20;99.90;;;;;;5010325;28;20199;-69
2021/12/23 00:04:09;;;;;;;55.28;29.52;;;-5.20;99.90;;;;;;5010165;28;20206;-68
2021/12/23 00:06:36;;;;;;;57.75;28.30;;;-5.20;99.90;;;;;;5008740;28;20282;-69
2021/12/23 00:09:04;;;;;;;52.90;26.40;;;-5.30;99.90;;;;;;4992158;28;20209;-72
2021/12/23 00:11:31;;;;;;;50.55;26.95;;;-5.30;99.90;;;;;;4993605;28;20257;-70
2021/12/23 00:14:04;;;;;;;51.92;27.15;;;-5.30;99.90;;;;;;5009073;28;20206;-68
2021/12/23 00:19:23;;;;;;;52.78;26.13;;;-5.30;99.90;;;;;;5010600;28;20178;-69
2021/12/23 00:24:37;;;;;;;47.58;26.20;;;-5.40;99.90;;;;;;5010823;28;20214;-69
2021/12/23 00:27:04;;;;;;;54.95;26.65;;;-5.40;99.90;;;;;;5010617;28;20198;-69
2021/12/23 00:29:30;;;;;;;46.33;26.70;;;-5.40;99.90;;;;;;5008999;28;20218;-69
2021/12/23 00:31:57;;;;;;;47.83;25.23;;;-5.40;99.90;;;;;;5010233;28;20222;-69
2021/12/23 00:34:24;;;;;;;46.95;26.70;;;-5.40;99.90;;;;;;5010252;28;20203;-70
2021/12/23 00:36:52;;;;;;;53.70;26.48;;;-5.30;99.90;;;;;;5008985;28;20199;-69
2021/12/23 00:39:19;;;;;;;51.13;27.00;;;-5.30;99.90;;;;;;5009042;28;20232;-70
2021/12/23 00:41:46;;;;;;;58.28;29.30;;;-5.30;99.90;;;;;;5009186;28;20206;-69
2021/12/23 00:44:13;;;;;;;45.42;26.42;;;-5.20;99.90;;;;;;4993346;28;20266;-69
2021/12/23 00:46:40;;;;;;;59.50;27.85;;;-5.20;99.90;;;;;;5007039;28;20225;-69
2021/12/23 00:49:07;;;;;;;53.35;25.95;;;-5.20;99.90;;;;;;5010643;28;20205;-69
2021/12/23 00:51:35;;;;;;;55.28;28.45;;;-5.30;99.90;;;;;;5009931;28;20207;-68
2021/12/23 00:54:05;;;;;;;52.30;26.58;;;-5.30;99.90;;;;;;5010351;28;20206;-69
2021/12/23 00:56:34;;;;;;;52.40;25.85;;;-5.30;99.90;;;;;;4992515;28;20249;-69
2021/12/23 00:59:02;;;;;;;50.10;25.92;;;-5.30;99.90;;;;;;5003579;28;20206;-68
2021/12/23 01:01:28;;;;;;;54.33;27.00;;;-5.30;99.90;;;;;;4994876;28;20206;-68
2021/12/23 01:03:56;;;;;;;53.70;27.42;;;-5.30;99.90;;;;;;4995030;28;20198;-69
2021/12/23 01:06:23;;;;;;;59.83;28.17;;;-5.30;99.90;;;;;;4994854;28;20218;-68
2021/12/23 01:08:49;;;;;;;59.25;30.10;;;-5.20;99.90;;;;;;4995825;28;20202;-68
2021/12/23 01:11:16;;;;;;;61.28;26.38;;;-5.20;99.90;;;;;;4994917;28;20249;-68
2021/12/23 01:13:49;;;;;;;56.72;28.23;;;-5.20;99.90;;;;;;4995339;28;20651;-69
2021/12/23 01:16:26;;;;;;;56.53;28.83;;;-5.30;99.90;;;;;;4994795;28;20666;-68
2021/12/23 01:18:55;;;;;;;54.10;27.83;;;-5.30;99.90;;;;;;4996323;28;20187;-68
2021/12/23 01:21:21;;;;;;;55.40;28.58;;;-5.20;99.90;;;;;;4997903;28;20234;-69
2021/12/23 01:23:53;;;;;;;63.40;30.40;;;-5.20;99.90;;;;;;4997928;28;20395;-69
2021/12/23 01:26:22;;;;;;;51.60;27.88;;;-5.20;99.90;;;;;;5000050;28;20187;-69
2021/12/23 01:28:56;;;;;;;58.63;27.90;;;-5.20;99.90;;;;;;5000972;28;20218;-69
2021/12/23 01:31:25;;;;;;;57.85;27.67;;;-5.20;99.90;;;;;;4998100;28;20333;-69
2021/12/23 01:33:52;;;;;;;50.55;26.88;;;-5.20;99.90;;;;;;4999178;28;20289;-69
2021/12/23 01:36:18;;;;;;;47.58;26.35;;;-5.20;99.90;;;;;;4998949;28;20348;-69
2021/12/23 01:38:45;;;;;;;51.38;25.38;;;-5.20;99.90;;;;;;4999889;28;20289;-68
2021/12/23 01:41:12;;;;;;;49.83;25.33;;;-5.20;99.90;;;;;;4999437;28;20281;-69
2021/12/23 01:43:39;;;;;;;49.95;25.58;;;-5.20;99.90;;;;;;4999990;28;20289;-68
2021/12/23 01:46:05;;;;;;;49.22;25.63;;;-5.20;99.90;;;;;;5001098;28;20203;-69
2021/12/23 01:48:32;;;;;;;47.83;24.10;;;-5.20;99.90;;;;;;5000598;28;20293;-70
2021/12/23 01:50:59;;;;;;;46.85;23.83;;;-5.20;99.90;;;;;;5000110;28;20234;-70
2021/12/23 01:53:26;;;;;;;49.95;27.05;;;-5.20;99.90;;;;;;4999784;28;20413;-69
2021/12/23 01:55:52;;;;;;;52.22;26.48;;;-5.20;99.90;;;;;;5000304;28;20202;-70
2021/12/23 01:58:20;;;;;;;51.55;25.13;;;-5.10;99.90;;;;;;4998968;28;20217;-70
2021/12/23 02:00:50;;;;;;;50.90;26.10;;;-5.10;99.90;;;;;;4999761;28;20317;-68
2021/12/23 02:03:17;;;;;;;51.45;26.65;;;-5.10;99.90;;;;;;4978146;28;20547;-68
2021/12/23 02:05:44;;;;;;;52.42;25.33;;;-5.00;99.90;;;;;;4995045;28;20217;-68
2021/12/23 02:08:11;;;;;;;48.95;24.65;;;-5.00;99.90;;;;;;4995011;28;20281;-69
2021/12/23 02:10:40;;;;;;;49.47;24.38;;;-5.00;99.90;;;;;;4995290;28;20218;-69
2021/12/23 02:13:06;;;;;;;41.85;23.75;;;-5.10;99.90;;;;;;4994146;28;20199;-68
2021/12/23 02:15:33;;;;;;;50.20;25.60;;;-5.00;99.90;;;;;;4995591;28;20206;-68
2021/12/23 02:18:00;;;;;;;53.42;24.95;;;-5.00;99.90;;;;;;4996208;28;20206;-68
2021/12/23 02:20:32;;;;;;;44.13;23.80;;;-5.00;99.90;;;;;;4995163;28;20231;-68
2021/12/23 02:22:59;;;;;;;49.58;25.08;;;-4.90;99.90;;;;;;4996292;28;20302;-68
2021/12/23 02:25:26;;;;;;;44.08;23.42;;;-5.00;99.90;;;;;;4995744;28;20206;-69
2021/12/23 02:27:53;;;;;;;50.03;26.58;;;-4.90;99.90;;;;;;4997758;28;20257;-68
2021/12/23 02:30:24;;;;;;;49.17;25.73;;;-4.90;99.90;;;;;;4998157;28;20709;-69
2021/12/23 02:32:52;;;;;;;47.03;23.15;;;-4.90;99.90;;;;;;4998919;28;20186;-68
2021/12/23 02:35:21;;;;;;;55.55;28.55;;;-4.80;99.90;;;;;;4998773;28;20202;-69
2021/12/23 02:37:48;;;;;;;60.72;27.42;;;-4.80;99.90;;;;;;4998535;28;20202;-68
2021/12/23 02:40:44;;;;;;;56.97;28.15;;;-4.80;99.90;;;;;;4996743;28;20202;-69
2021/12/23 02:43:22;;;;;;;58.80;29.17;;;-4.80;99.90;;;;;;4981900;28;20206;-68
2021/12/23 02:45:50;;;;;;;60.05;30.08;;;-4.80;99.90;;;;;;4998038;28;20203;-67
2021/12/23 02:48:24;;;;;;;57.10;29.38;;;-4.80;99.90;;;;;;4999055;28;20199;-69
2021/12/23 02:50:54;;;;;;;72.78;32.05;;;-4.70;99.90;;;;;;4998532;28;20211;-67
2021/12/23 02:53:21;;;;;;;72.97;32.78;;;-4.70;99.90;;;;;;4998229;28;20210;-69
2021/12/23 02:55:48;;;;;;;71.38;29.80;;;-4.60;99.90;;;;;;4998049;28;20206;-68
2021/12/23 02:58:14;;;;;;;70.32;33.30;;;-4.60;99.90;;;;;;4998450;28;20556;-68
2021/12/23 03:00:44;;;;;;;61.83;31.33;;;-4.60;99.90;;;;;;4997592;28;20210;-68
2021/12/23 03:03:11;;;;;;;77.78;31.67;;;-4.60;99.90;;;;;;4997891;28;20199;-68
2021/12/23 03:05:37;;;;;;;76.00;34.17;;;-4.60;99.90;;;;;;4998005;28;20202;-68
2021/12/23 03:08:04;;;;;;;69.53;32.25;;;-4.60;99.90;;;;;;4998204;28;20211;-68
2021/12/23 03:10:30;;;;;;;71.75;33.33;;;-4.50;99.90;;;;;;4996179;28;20226;-68
2021/12/23 03:12:57;;;;;;;72.60;31.95;;;-4.50;99.90;;;;;;4997876;28;20203;-68
2021/12/23 03:15:23;;;;;;;56.88;29.25;;;-4.50;99.90;;;;;;4998045;28;20211;-69
2021/12/23 03:17:50;;;;;;;80.20;37.38;;;-4.40;99.90;;;;;;4997771;28;20207;-69
2021/12/23 03:20:16;;;;;;;73.03;32.63;;;-4.30;99.90;;;;;;4997608;28;20710;-68
2021/12/23 03:22:43;;;;;;;72.10;34.03;;;-4.30;99.90;;;;;;4997543;28;20194;-67
2021/12/23 03:25:09;;;;;;;75.10;33.55;;;-4.30;99.90;;;;;;4997988;28;20614;-68
2021/12/23 03:27:36;;;;;;;72.00;31.42;;;-4.20;99.90;;;;;;4997229;28;20214;-67
2021/12/23 03:30:04;;;;;;;76.82;35.08;;;-4.20;99.90;;;;;;4997499;28;20637;-67
2021/12/23 03:32:31;;;;;;;75.38;32.50;;;-4.20;99.90;;;;;;4997255;28;20629;-67
2021/12/23 03:34:58;;;;;;;69.20;34.00;;;-4.20;99.90;;;;;;4997183;28;20210;-68
2021/12/23 03:37:24;;;;;;;66.18;30.70;;;-4.10;99.90;;;;;;4997348;28;20264;-68
2021/12/23 03:39:53;;;;;;;71.90;32.45;;;-4.10;99.90;;;;;;4996549;28;20217;-69
2021/12/23 03:42:20;;;;;;;62.45;32.72;;;-4.10;99.90;;;;;;4997042;28;20203;-68
2021/12/23 03:44:47;;;;;;;69.13;33.15;;;-4.00;99.90;;;;;;4997057;28;20199;-69
2021/12/23 03:47:13;;;;;;;61.25;31.30;;;-4.00;99.90;;;;;;4997609;28;20210;-69
2021/12/23 03:49:40;;;;;;;69.10;33.92;;;-4.00;99.90;;;;;;4997368;28;20202;-69
2021/12/23 03:52:06;;;;;;;74.38;34.35;;;-4.00;99.90;;;;;;4997337;28;20608;-69
2021/12/23 03:54:33;;;;;;;76.28;34.63;;;-4.00;99.90;;;;;;4997820;28;20737;-69
2021/12/23 03:56:59;;;;;;;78.60;33.92;;;-4.00;99.90;;;;;;4997369;28;20205;-69
2021/12/23 03:59:26;;;;;;;68.57;35.60;;;-4.00;99.90;;;;;;4995512;28;20552;-69
2021/12/23 04:01:53;;;;;;;80.50;34.90;;;-4.10;99.90;;;;;;4997711;28;20229;-69
2021/12/23 04:04:20;;;;;;;94.28;35.78;;;-4.10;99.90;;;;;;4997522;28;20689;-68
2021/12/23 04:06:46;;;;;;;78.35;31.50;;;-4.10;99.90;;;;;;4997265;28;20222;-68
2021/12/23 04:09:13;;;;;;;74.60;36.33;;;-4.00;99.90;;;;;;4997236;28;20207;-69
2021/12/23 04:11:39;;;;;;;76.28;36.55;;;-4.10;99.90;;;;;;4997437;28;20253;-70
2021/12/23 04:14:06;;;;;;;79.90;34.70;;;-4.00;99.90;;;;;;4997283;28;20206;-69
2021/12/23 04:16:32;;;;;;;86.57;33.40;;;-4.00;99.90;;;;;;4996872;28;20195;-69
2021/12/23 04:18:59;;;;;;;70.35;33.75;;;-4.00;99.90;;;;;;4996479;28;20572;-68
2021/12/23 04:21:25;;;;;;;72.18;32.38;;;-4.00;99.90;;;;;;4996873;28;20226;-67
2021/12/23 04:23:52;;;;;;;65.90;30.77;;;-4.00;99.90;;;;;;4997487;28;20214;-69
2021/12/23 04:26:18;;;;;;;70.30;31.15;;;-4.00;99.90;;;;;;4996588;28;20709;-70
2021/12/23 04:28:46;;;;;;;64.20;33.55;;;-4.10;99.90;;;;;;4996767;28;20650;-69
2021/12/23 04:31:15;;;;;;;68.53;32.53;;;-4.10;99.90;;;;;;4994813;28;20234;-70
2021/12/23 04:33:42;;;;;;;78.97;33.97;;;-4.00;99.90;;;;;;4996478;28;20261;-68
2021/12/23 04:36:09;;;;;;;66.30;32.28;;;-4.00;99.90;;;;;;4996779;28;20207;-69
2021/12/23 04:38:37;;;;;;;68.75;32.80;;;-4.00;99.90;;;;;;4996655;28;20674;-69
2021/12/23 04:41:05;;;;;;;62.95;32.22;;;-4.00;99.90;;;;;;4996534;28;20210;-69
2021/12/23 04:43:31;;;;;;;63.13;31.45;;;-3.90;99.90;;;;;;4996772;28;20207;-68
2021/12/23 04:45:58;;;;;;;67.07;31.00;;;-3.80;99.90;;;;;;4996347;28;20320;-68
2021/12/23 04:48:24;;;;;;;60.95;29.52;;;-3.80;99.90;;;;;;4995831;28;20210;-69
2021/12/23 04:50:51;;;;;;;70.07;30.83;;;-3.90;99.90;;;;;;4995750;28;20222;-68
2021/12/23 04:53:17;;;;;;;63.03;32.10;;;-3.80;99.90;;;;;;4996099;28;20233;-68
2021/12/23 04:55:44;;;;;;;66.82;31.65;;;-3.80;99.90;;;;;;4996273;28;20206;-68
2021/12/23 04:58:10;;;;;;;61.97;31.05;;;-3.80;99.90;;;;;;4994807;28;20206;-69
2021/12/23 05:00:37;;;;;;;66.13;32.85;;;-3.80;99.90;;;;;;4995692;28;20588;-69
2021/12/23 05:03:04;;;;;;;77.10;32.78;;;-3.80;99.90;;;;;;4996430;28;20256;-69
2021/12/23 05:05:30;;;;;;;75.95;33.88;;;-3.80;99.90;;;;;;4995331;28;20233;-68
2021/12/23 05:07:59;;;;;;;71.05;32.10;;;-3.80;99.90;;;;;;4994677;28;20203;-69
2021/12/23 05:10:26;;;;;;;68.63;32.22;;;-3.70;99.90;;;;;;4993837;28;20227;-69
2021/12/23 05:12:52;;;;;;;61.10;30.90;;;-3.70;99.90;;;;;;4995372;28;20677;-69
2021/12/23 05:15:20;;;;;;;73.25;32.58;;;-3.80;99.90;;;;;;4995822;28;20265;-69
2021/12/23 05:17:47;;;;;;;78.45;34.30;;;-3.70;99.90;;;;;;4995441;28;20571;-69
2021/12/23 05:20:18;;;;;;;74.65;32.17;;;-3.70;99.90;;;;;;4995599;28;20267;-68
2021/12/23 05:22:44;;;;;;;63.70;33.35;;;-3.60;99.90;;;;;;4995234;28;20198;-69
2021/12/23 05:25:11;;;;;;;67.13;30.17;;;-3.60;99.90;;;;;;4996367;28;20205;-69
2021/12/23 05:27:38;;;;;;;63.10;30.90;;;-3.60;99.90;;;;;;4996308;28;20203;-68
2021/12/23 05:30:11;;;;;;;70.75;32.42;;;-3.60;99.90;;;;;;4995382;28;20207;-69
2021/12/23 05:32:38;;;;;;;66.13;32.03;;;-3.60;99.90;;;;;;4995189;28;20582;-68
2021/12/23 05:35:05;;;;;;;63.20;30.42;;;-3.60;99.90;;;;;;4995559;28;20210;-68
2021/12/23 05:37:32;;;;;;;55.65;29.42;;;-3.60;99.90;;;;;;4995441;28;20206;-69
2021/12/23 05:39:58;;;;;;;72.68;31.00;;;-3.50;99.90;;;;;;4995407;28;20207;-69
2021/12/23 05:42:24;;;;;;;64.53;30.63;;;-3.50;99.90;;;;;;4995197;28;20264;-68
2021/12/23 05:44:51;;;;;;;64.53;32.60;;;-3.50;99.90;;;;;;4995520;28;20252;-68
2021/12/23 05:47:17;;;;;;;75.10;33.90;;;-3.50;99.90;;;;;;4995541;28;20203;-68
2021/12/23 05:49:44;;;;;;;70.03;29.75;;;-3.60;99.90;;;;;;4995575;28;20209;-68
2021/12/23 05:52:10;;;;;;;69.20;33.08;;;-3.60;99.90;;;;;;4995433;28;20277;-68
2021/12/23 05:54:36;;;;;;;63.45;32.28;;;-3.60;99.90;;;;;;4993580;28;20265;-69
2021/12/23 05:57:03;;;;;;;66.75;33.72;;;-3.50;99.90;;;;;;4995998;28;20268;-69
2021/12/23 05:59:31;;;;;;;61.53;31.60;;;-3.50;99.90;;;;;;4995621;28;20206;-69
2021/12/23 06:01:59;;;;;;;65.13;31.75;;;-3.60;99.90;;;;;;4996691;28;20593;-69
2021/12/23 06:04:26;;;;;;;71.15;33.03;;;-3.60;99.90;;;;;;4999832;28;20210;-69
2021/12/23 06:06:52;;;;;;;76.63;34.33;;;-3.50;99.90;;;;;;4999660;28;20226;-68
2021/12/23 06:09:19;;;;;;;63.58;33.75;;;-3.60;99.90;;;;;;4999425;28;20206;-69
2021/12/23 06:11:45;;;;;;;74.82;33.38;;;-3.60;99.90;;;;;;4999164;28;20600;-68
2021/12/23 06:14:12;;;;;;;63.08;31.42;;;-3.60;99.90;;;;;;4998646;28;20614;-69
2021/12/23 06:16:38;;;;;;;63.85;30.70;;;-3.70;99.90;;;;;;4992681;28;20253;-69
2021/12/23 06:19:05;;;;;;;65.47;31.88;;;-3.70;99.90;;;;;;4996955;28;20670;-68
2021/12/23 06:21:32;;;;;;;66.07;32.47;;;-3.70;99.90;;;;;;4998141;28;20231;-68
2021/12/23 06:23:59;;;;;;;70.75;31.27;;;-3.70;99.90;;;;;;4997592;28;20221;-68
2021/12/23 06:26:25;;;;;;;65.60;33.20;;;-3.60;99.90;;;;;;4998889;28;20230;-68
2021/12/23 06:28:52;;;;;;;61.85;32.38;;;-3.70;99.90;;;;;;4998678;28;20210;-68
2021/12/23 06:31:18;;;;;;;67.15;30.80;;;-3.70;99.90;;;;;;4980579;28;20214;-68
2021/12/23 06:33:45;;;;;;;64.43;32.40;;;-3.70;99.90;;;;;;4998602;28;20290;-68
2021/12/23 06:36:13;;;;;;;67.35;32.35;;;-3.70;99.90;;;;;;4980287;28;20207;-69
2021/12/23 06:38:44;;;;;;;67.95;30.90;;;-3.70;99.90;;;;;;4997453;28;20217;-69
2021/12/23 06:41:11;;;;;;;58.17;30.17;;;-3.70;99.90;;;;;;4998117;28;20264;-68
2021/12/23 06:43:38;;;;;;;66.88;32.40;;;-3.60;99.90;;;;;;4998658;28;20210;-68
2021/12/23 06:46:05;;;;;;;62.67;31.88;;;-3.60;99.90;;;;;;4998774;28;20549;-68
2021/12/23 06:48:32;;;;;;;68.85;30.85;;;-3.70;99.90;;;;;;4999881;28;20286;-69
2021/12/23 06:51:00;;;;;;;57.83;29.33;;;-3.70;99.90;;;;;;4998874;28;20226;-67
2021/12/23 06:53:27;;;;;;;70.40;32.08;;;-3.80;99.90;;;;;;4998531;28;20259;-69
2021/12/23 06:55:55;;;;;;;69.22;33.38;;;-3.80;99.90;;;;;;4998493;28;20198;-69
2021/12/23 06:58:23;;;;;;;60.47;30.10;;;-3.80;99.90;;;;;;4998937;28;20206;-70
2021/12/23 07:00:54;;;;;;;66.07;30.83;;;-3.80;99.90;;;;;;4996227;28;20207;-68
2021/12/23 07:03:21;;;;;;;55.58;29.08;;;-3.80;99.90;;;;;;4998359;28;20294;-68
2021/12/23 07:05:55;;;;;;;61.83;32.15;;;-3.90;99.90;;;;;;4981079;28;20788;-68
2021/12/23 07:08:27;;;;;;;66.78;31.80;;;-3.90;99.90;;;;;;4998129;28;20638;-68
2021/12/23 07:10:54;;;;;;;69.43;29.58;;;-3.90;99.90;;;;;;4991102;28;20293;-69
2021/12/23 07:13:20;;;;;;;64.03;32.95;;;-3.80;99.90;;;;;;4961568;28;20205;-68
2021/12/23 07:15:48;;;;;;;63.30;32.17;;;-3.80;99.90;;;;;;4979472;28;20206;-70
2021/12/23 07:18:14;;;;;;;66.97;30.80;;;-3.80;99.90;;;;;;4961549;28;20257;-69
2021/12/23 07:20:41;;;;;;;61.97;30.20;;;-3.70;99.90;;;;;;4979125;28;20672;-68
2021/12/23 07:23:07;;;;;;;60.28;30.17;;;-3.70;99.90;;;;;;4979776;28;20230;-69
2021/12/23 07:25:35;;;;;;;55.63;31.55;;;-3.70;99.90;;;;;;4996282;28;20206;-69
2021/12/23 07:28:01;;;;;;;71.40;34.38;;;-3.70;99.90;;;;;;4998894;28;20211;-69
2021/12/23 07:30:28;;;;;;;109.10;48.75;;;-3.70;99.90;;;;;;4998864;28;20610;-69
2021/12/23 07:32:54;;;;;;;72.53;34.60;;;-3.70;99.90;;;;;;4998618;28;20226;-69
2021/12/23 07:35:21;;;;;;;73.15;34.45;;;-3.70;99.90;;;;;;4996723;28;20198;-69
2021/12/23 07:37:48;;;;;;;67.80;32.60;;;-3.70;99.90;;;;;;4998009;28;20199;-68
2021/12/23 07:40:17;;;;;;;59.60;29.85;;;-3.70;99.90;;;;;;4987830;28;20212;-68
2021/12/23 07:42:53;;;;;;;70.70;30.65;;;-3.70;99.90;;;;;;4977583;28;20207;-68
2021/12/23 07:45:21;;;;;;;59.67;31.50;;;-3.60;99.90;;;;;;4977155;28;20335;-68
2021/12/23 07:47:48;;;;;;;69.90;33.25;;;-3.60;99.90;;;;;;4977693;28;20218;-68
2021/12/23 07:50:15;;;;;;;62.20;31.80;;;-3.50;99.90;;;;;;4978288;28;20203;-69
2021/12/23 07:52:41;;;;;;;62.88;32.17;;;-3.50;99.90;;;;;;4992044;28;20237;-69
2021/12/23 07:55:08;;;;;;;64.40;31.35;;;-3.40;99.90;;;;;;4997971;28;20202;-69
2021/12/23 07:57:35;;;;;;;54.30;30.23;;;-3.40;99.90;;;;;;4997257;28;20285;-68
2021/12/23 08:00:04;;;;;;;71.20;32.53;;;-3.40;99.90;;;;;;4996938;28;20206;-69
2021/12/23 08:02:30;;;;;;;64.95;32.15;;;-3.40;99.90;;;;;;4997932;28;20218;-68
2021/12/23 08:04:56;;;;;;;65.47;32.67;;;-3.30;99.90;;;;;;4980466;28;20203;-68
2021/12/23 08:07:23;;;;;;;71.10;30.90;;;-3.30;99.90;;;;;;4997986;28;20229;-69
2021/12/23 08:09:49;;;;;;;74.30;35.05;;;-3.30;99.90;;;;;;4997508;28;20266;-69
2021/12/23 08:12:16;;;;;;;65.13;32.33;;;-3.20;99.90;;;;;;4997827;28;20223;-69
2021/12/23 08:14:42;;;;;;;73.55;35.47;;;-3.10;99.90;;;;;;4997505;28;20662;-69
2021/12/23 08:17:08;;;;;;;68.85;32.33;;;-3.00;99.90;;;;;;4996177;28;20207;-68
2021/12/23 08:19:35;;;;;;;61.97;30.17;;;-3.00;99.90;;;;;;4995628;28;20205;-68
2021/12/23 08:22:02;;;;;;;66.80;30.63;;;-3.10;99.90;;;;;;4995675;28;20203;-68
2021/12/23 08:24:29;;;;;;;55.80;30.42;;;-3.00;99.90;;;;;;4996238;28;20206;-68
2021/12/23 08:26:55;;;;;;;57.38;28.55;;;-2.80;99.90;;;;;;4995565;28;20218;-68
2021/12/23 08:29:24;;;;;;;60.83;31.40;;;-2.90;99.90;;;;;;4997155;28;20247;-68
2021/12/23 08:31:54;;;;;;;66.07;33.20;;;-2.70;99.90;;;;;;4996453;28;20218;-68
2021/12/23 08:34:22;;;;;;;64.82;31.35;;;-2.70;99.90;;;;;;4979318;28;20198;-69
2021/12/23 08:36:49;;;;;;;57.78;30.40;;;-2.70;99.90;;;;;;4997203;28;20207;-68
2021/12/23 08:39:17;;;;;;;53.15;28.20;;;-2.70;99.90;;;;;;4996829;28;20221;-68
2021/12/23 08:41:44;;;;;;;62.47;31.02;;;-2.60;99.90;;;;;;4996776;28;20557;-69
2021/12/23 08:44:11;;;;;;;56.67;31.15;;;-2.60;99.90;;;;;;4996901;28;20202;-68
2021/12/23 08:46:38;;;;;;;60.40;30.25;;;-2.50;99.90;;;;;;4996999;28;20202;-67
2021/12/23 08:49:05;;;;;;;62.78;32.30;;;-2.40;99.90;;;;;;4996683;28;20207;-68
2021/12/23 08:51:33;;;;;;;64.70;34.33;;;-2.40;99.90;;;;;;4996303;28;20227;-68
2021/12/23 08:54:00;;;;;;;58.55;30.73;;;-2.40;99.90;;;;;;4996069;28;20210;-68
2021/12/23 08:56:26;;;;;;;59.90;29.55;;;-2.30;99.90;;;;;;4997152;28;20213;-69
2021/12/23 08:58:53;;;;;;;57.15;29.75;;;-2.30;99.90;;;;;;4996608;28;20195;-68
2021/12/23 09:01:20;;;;;;;53.72;27.27;;;-2.20;99.90;;;;;;4995464;28;20210;-68
2021/12/23 09:03:46;;;;;;;54.65;29.63;;;-2.20;99.90;;;;;;4996296;28;20214;-68
2021/12/23 09:06:12;;;;;;;63.20;30.17;;;-2.20;99.90;;;;;;4995530;28;20226;-69
2021/12/23 09:08:39;;;;;;;55.58;29.17;;;-2.10;99.90;;;;;;4996288;28;20716;-68
2021/12/23 09:11:07;;;;;;;55.67;29.90;;;-2.00;99.90;;;;;;4995948;28;20268;-69
2021/12/23 09:13:34;;;;;;;53.28;28.77;;;-2.00;99.90;;;;;;4996102;28;20567;-69
2021/12/23 09:16:00;;;;;;;61.22;29.92;;;-2.00;99.90;;;;;;4996778;28;20265;-69
2021/12/23 09:18:27;;;;;;;56.90;28.80;;;-2.00;99.90;;;;;;4996660;28;20558;-69
2021/12/23 09:20:55;;;;;;;59.90;29.15;;;-1.90;99.90;;;;;;4996729;28;20301;-69
2021/12/23 09:23:22;;;;;;;53.13;28.73;;;-1.70;99.90;;;;;;4996900;28;20260;-69
2021/12/23 09:25:51;;;;;;;54.63;28.25;;;-1.80;99.90;;;;;;4995218;28;20206;-68
2021/12/23 09:33:42;;;;;;;51.30;28.33;;;-1.60;99.90;;;;;;4995267;28;20279;-68
2021/12/23 09:36:10;;;;;;;55.65;29.33;;;-1.60;99.90;;;;;;4994890;28;20225;-68
2021/12/23 09:38:36;;;;;;;50.95;28.63;;;-1.50;99.90;;;;;;4996267;28;20202;-68
2021/12/23 09:41:05;;;;;;;51.55;28.38;;;-1.50;99.90;;;;;;4996612;28;20228;-68
2021/12/23 09:43:32;;;;;;;69.60;29.55;;;-1.40;99.90;;;;;;4996599;28;20239;-69
2021/12/23 09:45:59;;;;;;;55.53;26.15;;;-1.30;99.90;;;;;;4996736;28;20207;-69
2021/12/23 09:48:30;;;;;;;76.15;39.72;;;-1.30;99.90;;;;;;4996486;28;20209;-68
2021/12/23 09:51:00;;;;;;;54.17;28.45;;;-1.20;99.90;;;;;;4996482;28;20290;-68
2021/12/23 09:53:27;;;;;;;54.70;29.90;;;-1.20;99.90;;;;;;4995636;28;20203;-69
2021/12/23 09:55:56;;;;;;;58.75;28.35;;;-1.10;99.90;;;;;;4997552;28;20218;-69
2021/12/23 09:58:23;;;;;;;56.25;30.85;;;-1.00;99.90;;;;;;4997927;28;20202;-69
2021/12/23 10:00:51;;;;;;;50.28;27.80;;;-0.80;99.90;;;;;;4996569;28;20206;-68
2021/12/23 10:03:20;;;;;;;52.85;26.70;;;-0.70;99.90;;;;;;4996858;28;20213;-69
2021/12/23 10:05:47;;;;;;;48.40;28.00;;;-0.60;99.90;;;;;;4997324;28;20210;-69
2021/12/23 10:08:15;;;;;;;52.22;26.55;;;-0.40;99.90;;;;;;4997429;28;20574;-69
2021/12/23 10:26:52;;;;;;;49.13;24.38;;;-0.20;99.90;;;;;;4996540;28;20234;-69
2021/12/23 10:33:08;;;;;;;43.10;24.10;;;0.40;99.90;;;;;;4996062;28;20301;-68
2021/12/23 10:38:41;;;;;;;46.53;23.20;;;0.60;99.90;;;;;;4995922;28;20209;-68
2021/12/23 10:41:17;;;;;;;42.97;23.92;;;0.70;99.90;;;;;;4995463;28;20593;-69
2021/12/23 10:43:52;;;;;;;40.08;21.40;;;0.80;99.90;;;;;;4994692;28;20191;-69
2021/12/23 10:46:24;;;;;;;41.83;24.70;;;0.90;99.90;;;;;;4995077;28;20206;-69
2021/12/23 10:49:03;;;;;;;42.47;24.60;;;0.90;99.90;;;;;;4995698;28;20210;-69
2021/12/23 10:51:57;;;;;;;36.97;22.85;;;1.00;99.90;;;;;;4998142;28;20288;-69
2021/12/23 11:00:30;;;;;;;37.20;22.45;;;1.10;99.90;;;;;;4999413;28;20194;-68
2021/12/23 11:02:58;;;;;;;35.22;22.02;;;1.20;99.90;;;;;;4999539;28;20198;-68
2021/12/23 11:05:29;;;;;;;44.28;24.05;;;1.30;99.90;;;;;;4999271;28;20199;-68
2021/12/23 11:08:04;;;;;;;41.05;21.75;;;1.40;99.90;;;;;;4998491;28;20207;-68
2021/12/23 11:28:29;;;;;;;31.13;18.33;;;2.20;99.90;;;;;;4997112;28;20666;-68
2021/12/23 11:36:32;;;;;;;31.33;18.95;;;2.30;99.90;;;;;;4997783;28;20244;-69
2021/12/23 11:42:03;;;;;;;29.85;18.77;;;2.30;99.90;;;;;;4974139;28;20210;-68
2021/12/23 11:44:31;;;;;;;29.63;18.00;;;2.40;99.90;;;;;;4995222;28;20206;-68
2021/12/23 11:47:05;;;;;;;36.08;18.70;;;2.50;99.90;;;;;;4996416;28;20257;-68
2021/12/23 11:49:34;;;;;;;32.10;20.58;;;2.50;99.90;;;;;;4980363;28;20273;-69
2021/12/23 11:52:01;;;;;;;30.83;20.15;;;2.50;99.90;;;;;;4996276;28;20225;-69
2021/12/23 11:54:37;;;;;;;40.53;20.73;;;2.60;99.90;;;;;;4997658;28;20183;-68
2021/12/23 11:57:12;;;;;;;34.90;18.95;;;2.60;99.90;;;;;;4996470;28;20617;-68
2021/12/23 11:59:41;;;;;;;33.33;21.35;;;2.70;99.90;;;;;;4996154;28;20558;-69
2021/12/23 12:02:20;;;;;;;32.75;20.20;;;2.70;99.90;;;;;;4996592;28;20206;-68
2021/12/23 12:04:48;;;;;;;33.30;20.38;;;2.70;99.90;;;;;;4997626;28;20189;-68
2021/12/23 12:07:22;;;;;;;40.05;20.67;;;2.70;99.90;;;;;;4996846;28;20237;-68
2021/12/23 12:09:58;;;;;;;29.92;18.92;;;2.70;99.90;;;;;;4996728;28;20242;-68
2021/12/23 12:12:25;;;;;;;33.47;18.88;;;2.70;99.90;;;;;;4996932;28;20582;-69
2021/12/23 12:14:55;;;;;;;33.33;19.30;;;2.80;99.90;;;;;;4996569;28;20201;-68
2021/12/23 12:17:27;;;;;;;33.40;21.00;;;2.80;99.90;;;;;;4996327;28;20230;-68
2021/12/23 12:20:04;;;;;;;34.33;20.60;;;2.80;99.90;;;;;;4997049;28;20269;-69
2021/12/23 12:22:47;;;;;;;27.92;19.27;;;2.80;99.90;;;;;;4996299;28;20213;-68
2021/12/23 12:25:25;;;;;;;31.45;18.55;;;2.90;99.90;;;;;;4996576;28;20187;-69
2021/12/23 12:27:58;;;;;;;30.00;18.08;;;2.90;99.90;;;;;;4996323;28;20206;-68
2021/12/23 12:30:41;;;;;;;32.38;17.92;;;3.00;99.90;;;;;;4996615;28;20658;-68
2021/12/23 12:33:26;;;;;;;34.45;21.67;;;3.00;99.90;;;;;;4996095;28;20203;-67
2021/12/23 12:36:01;;;;;;;34.30;18.35;;;3.10;99.90;;;;;;4995726;28;20202;-68
2021/12/23 12:38:41;;;;;;;33.33;19.05;;;3.20;99.90;;;;;;4996078;28;20221;-68
2021/12/23 12:41:32;;;;;;;32.95;19.10;;;3.20;99.90;;;;;;4995911;28;20252;-67
2021/12/23 12:44:11;;;;;;;28.23;17.63;;;3.20;99.90;;;;;;4986444;28;20203;-67
2021/12/23 12:46:41;;;;;;;31.63;17.10;;;3.30;99.90;;;;;;4996011;28;20269;-68
2021/12/23 12:49:26;;;;;;;30.73;18.67;;;3.40;99.90;;;;;;4996228;28;20182;-67
2021/12/23 12:51:55;;;;;;;23.23;14.88;;;3.50;99.90;;;;;;4995436;28;20264;-67
2021/12/23 12:54:31;;;;;;;25.58;15.85;;;3.60;99.90;;;;;;4995803;28;20213;-69
2021/12/23 12:57:02;;;;;;;23.73;16.92;;;3.80;99.90;;;;;;4995517;28;20198;-68
2021/12/23 12:59:34;;;;;;;27.23;15.68;;;3.90;99.90;;;;;;4995309;28;20207;-68
2021/12/23 13:02:00;;;;;;;27.50;16.02;;;4.10;99.90;;;;;;4994901;28;20209;-68
2021/12/23 13:04:34;;;;;;;26.73;15.48;;;4.10;99.90;;;;;;4995115;28;20645;-68
2021/12/23 13:07:25;;;;;;;25.92;16.20;;;4.10;99.90;;;;;;4994685;28;20219;-68
2021/12/23 13:10:16;;;;;;;23.33;14.45;;;4.00;99.90;;;;;;4994939;28;20203;-69
2021/12/23 13:12:47;;;;;;;24.48;15.43;;;4.10;99.90;;;;;;4995235;28;20218;-69
2021/12/23 13:15:21;;;;;;;23.23;16.25;;;4.00;99.90;;;;;;4994929;28;20202;-69
2021/12/23 13:17:51;;;;;;;22.80;16.30;;;4.00;99.90;;;;;;4995225;28;20183;-69
2021/12/23 13:20:18;;;;;;;27.27;16.58;;;3.90;99.90;;;;;;4994481;28;20269;-69
2021/12/23 13:22:45;;;;;;;28.30;18.15;;;3.90;99.90;;;;;;4986417;28;20207;-69
2021/12/23 13:25:13;;;;;;;34.85;18.40;;;4.00;99.90;;;;;;4975122;28;20663;-68
2021/12/23 13:27:43;;;;;;;27.02;16.35;;;4.00;99.90;;;;;;4975787;28;20577;-68
2021/12/23 13:30:11;;;;;;;29.13;16.05;;;3.90;99.90;;;;;;4975242;28;20662;-68
2021/12/23 13:32:38;;;;;;;25.55;16.90;;;3.90;99.90;;;;;;4975714;28;20223;-68
2021/12/23 13:35:15;;;;;;;25.58;15.68;;;3.90;99.90;;;;;;4975478;28;20199;-68
2021/12/23 13:37:44;;;;;;;26.25;16.88;;;3.90;99.90;;;;;;4976099;28;20211;-69
2021/12/23 13:40:12;;;;;;;23.95;16.13;;;3.90;99.90;;;;;;4975977;28;20331;-68
2021/12/23 13:42:40;;;;;;;24.23;15.82;;;3.90;99.90;;;;;;4976050;28;20265;-69